createdAt,value
2019-04-11T00:00:53.626Z,94268.00
2019-04-11T00:03:23.039Z,94270.72
2019-04-11T00:05:52.906Z,94271.26
2019-04-11T00:08:22.325Z,94268.58
2019-04-11T00:10:51.784Z,94268.85
2019-04-11T00:13:25.176Z,94258.91
2019-04-11T00:15:52.962Z,94257.30
2019-04-11T00:18:22.857Z,94259.44
2019-04-11T00:20:52.811Z,94264.26
2019-04-11T00:23:22.224Z,94260.55
2019-04-11T00:25:51.756Z,94268.05
2019-04-11T00:28:21.584Z,94266.12
2019-04-11T00:30:51.115Z,94258.86
2019-04-11T00:33:20.547Z,94268.80
2019-04-11T00:35:50.239Z,94275.76
2019-04-11T00:38:19.728Z,94265.09
2019-04-11T00:40:49.213Z,94277.64
2019-04-11T00:43:30.591Z,94273.08
2019-04-11T00:45:49.814Z,94278.66
2019-04-11T00:48:19.730Z,94272.50
2019-04-11T00:50:49.631Z,94267.67
2019-04-11T00:53:20.393Z,94271.92
2019-04-11T00:55:49.951Z,94258.00
2019-04-11T00:58:19.602Z,94257.45
2019-04-11T01:00:49.448Z,94257.15
2019-04-11T01:03:20.063Z,94253.94
2019-04-11T01:05:49.946Z,94259.60
2019-04-11T01:08:19.824Z,94263.03
2019-04-11T01:10:49.759Z,94263.84
2019-04-11T01:13:20.931Z,94269.20
2019-04-11T01:15:58.696Z,94270.27
2019-04-11T01:18:28.114Z,94268.97
2019-04-11T01:20:57.716Z,94271.64
2019-04-11T01:23:27.166Z,94273.79
2019-04-11T01:25:56.982Z,94274.59
2019-04-11T01:28:26.834Z,94272.18
2019-04-11T01:31:01.095Z,94275.66
2019-04-11T01:33:31.682Z,94270.84
2019-04-11T01:36:01.200Z,94272.45
2019-04-11T01:38:32.508Z,94267.63
2019-04-11T01:41:02.432Z,94266.83
2019-04-11T01:43:32.440Z,94262.28
2019-04-11T01:46:02.220Z,94267.14
2019-04-11T01:48:39.618Z,94268.72
2019-04-11T01:51:09.642Z,94267.42
2019-04-11T01:53:40.565Z,94267.33
2019-04-11T01:56:10.074Z,94270.48
2019-04-11T01:58:40.567Z,94274.28
2019-04-11T02:01:20.957Z,94274.23
2019-04-11T02:04:12.029Z,94278.29
2019-04-11T02:06:42.451Z,94277.18
2019-04-11T02:09:13.780Z,94274.50
2019-04-11T02:11:43.535Z,94276.63
2019-04-11T02:14:16.417Z,94278.47
2019-04-11T02:16:45.276Z,94278.20
2019-04-11T02:19:14.800Z,94277.66
2019-04-11T02:21:44.346Z,94274.98
2019-04-11T02:24:25.896Z,94286.22
2019-04-11T02:27:11.916Z,94281.67
2019-04-11T02:29:42.385Z,94284.35
2019-04-11T02:32:12.700Z,94284.08
2019-04-11T02:34:43.758Z,94284.94
2019-04-11T02:37:15.227Z,94288.67
2019-04-11T02:39:44.736Z,94296.12
2019-04-11T02:42:14.884Z,94298.55
2019-04-11T02:44:59.294Z,94286.75
2019-04-11T02:47:22.033Z,94286.00
2019-04-11T02:49:47.701Z,94283.82
2019-04-11T02:52:17.727Z,94292.11
2019-04-11T02:54:49.301Z,94289.44
2019-04-11T02:57:18.801Z,94290.23
2019-04-11T02:59:49.002Z,94302.05
2019-04-11T03:02:19.510Z,94291.35
2019-04-11T03:04:50.939Z,94291.35
2019-04-11T03:07:20.614Z,94296.40
2019-04-11T03:09:51.034Z,94298.04
2019-04-11T03:12:21.687Z,94292.69
2019-04-11T03:15:09.220Z,94289.70
2019-04-11T03:17:28.674Z,94294.03
2019-04-11T03:20:08.350Z,94290.52
2019-04-11T03:22:26.815Z,94292.38
2019-04-11T03:24:58.397Z,94280.87
2019-04-11T03:27:30.387Z,94285.14
2019-04-11T03:30:00.109Z,94288.09
2019-04-11T03:33:08.009Z,94289.66
2019-04-11T03:37:53.918Z,94296.40
2019-04-11T03:40:22.569Z,94301.70
2019-04-11T03:42:52.397Z,94303.34
2019-04-11T03:45:30.869Z,94308.92
2019-04-11T03:47:56.122Z,94310.56
2019-04-11T03:50:15.331Z,94309.50
2019-04-11T03:52:40.793Z,94306.78
2019-04-11T03:55:11.144Z,94309.73
2019-04-11T03:57:41.732Z,94310.80
2019-04-11T04:00:13.093Z,94309.71
2019-04-11T04:02:44.402Z,94320.11
2019-04-11T04:05:15.306Z,94317.53
2019-04-11T04:07:46.210Z,94320.11
2019-04-11T04:10:18.424Z,94320.11
2019-04-11T04:12:48.092Z,94324.43
2019-04-11T04:15:54.069Z,94331.57
2019-04-11T04:18:31.766Z,94349.02
2019-04-11T04:21:33.248Z,94350.30
2019-04-11T04:24:25.268Z,94348.74
2019-04-11T04:26:56.776Z,94351.19
2019-04-11T04:29:28.816Z,94357.62
2019-04-11T04:31:59.343Z,94355.09
2019-04-11T04:34:28.948Z,94355.84
2019-04-11T04:36:59.970Z,94353.20
2019-04-11T04:39:31.242Z,94342.70
2019-04-11T04:42:08.222Z,94345.70
2019-04-11T04:44:33.314Z,94351.50
2019-04-11T04:47:15.627Z,94356.16
2019-04-11T04:49:34.933Z,94359.16
2019-04-11T04:52:06.090Z,94363.17
2019-04-11T04:54:36.595Z,94361.09
2019-04-11T04:57:08.709Z,94364.88
2019-04-11T04:59:39.982Z,94364.62
2019-04-11T05:02:10.956Z,94361.95
2019-04-11T05:04:40.485Z,94359.80
2019-04-11T05:07:11.626Z,94358.23
2019-04-11T05:09:42.658Z,94358.52
2019-04-11T05:12:12.143Z,94373.52
2019-04-11T05:14:41.600Z,94374.63
2019-04-11T05:17:11.092Z,94376.77
2019-04-11T05:19:40.527Z,94376.19
2019-04-11T05:22:10.555Z,94379.12
2019-04-11T05:24:41.047Z,94374.30
2019-04-11T05:27:10.555Z,94376.97
2019-04-11T05:29:40.051Z,94375.52
2019-04-11T05:32:09.517Z,94374.88
2019-04-11T05:34:39.347Z,94372.20
2019-04-11T05:37:09.068Z,94369.70
2019-04-11T05:39:38.547Z,94370.36
2019-04-11T05:42:09.194Z,94367.69
2019-04-11T05:44:40.374Z,94371.42
2019-04-11T05:47:14.553Z,94370.41
2019-04-11T05:49:55.003Z,94376.07
2019-04-11T05:52:27.398Z,94377.27
2019-04-11T05:54:58.529Z,94377.85
2019-04-11T05:57:35.191Z,94374.70
2019-04-11T05:59:59.311Z,94377.85
2019-04-11T06:02:33.394Z,94378.72
2019-04-11T06:05:17.478Z,94382.30
2019-04-11T06:08:06.405Z,94380.66
2019-04-11T06:10:57.827Z,94379.42
2019-04-11T06:13:36.433Z,94382.09
2019-04-11T06:16:06.396Z,94385.89
2019-04-11T06:19:04.079Z,94389.91
2019-04-11T06:21:37.159Z,94390.77
2019-04-11T06:24:40.629Z,94389.86
2019-04-11T06:27:22.777Z,94388.14
2019-04-11T06:30:06.063Z,94390.18
2019-04-11T06:32:54.226Z,94387.76
2019-04-11T06:35:30.465Z,94392.27
2019-04-11T06:38:18.574Z,94390.66
2019-04-11T06:40:55.412Z,94393.06
2019-04-11T06:43:42.580Z,94393.34
2019-04-11T06:46:48.577Z,94390.61
2019-04-11T06:49:42.582Z,94390.28
2019-04-11T06:52:12.768Z,94397.24
2019-04-11T06:54:59.499Z,94392.27
2019-04-11T06:57:30.019Z,94394.14
2019-04-11T06:59:59.538Z,94394.39
2019-04-11T07:02:29.975Z,94400.23
2019-04-11T07:05:02.921Z,94401.03
2019-04-11T07:07:35.662Z,94397.77
2019-04-11T07:10:07.024Z,94401.56
2019-04-11T07:12:42.828Z,94402.91
2019-04-11T07:15:20.968Z,94403.41
2019-04-11T07:18:07.854Z,94402.91
2019-04-11T07:21:02.938Z,94405.05
2019-04-11T07:23:51.162Z,94402.31
2019-04-11T07:26:27.348Z,94401.26
2019-04-11T07:29:27.493Z,94400.39
2019-04-11T07:32:17.867Z,94409.54
2019-04-11T07:35:04.884Z,94406.33
2019-04-11T07:37:36.680Z,94404.19
2019-04-11T07:40:27.171Z,94402.85
2019-04-11T07:43:19.738Z,94407.42
2019-04-11T07:46:11.147Z,94403.94
2019-04-11T07:48:42.621Z,94411.96
2019-04-11T07:51:40.749Z,94407.67
2019-04-11T07:54:15.820Z,94410.15
2019-04-11T07:57:08.366Z,94405.58
2019-04-11T07:59:50.955Z,94405.58
2019-04-11T08:02:37.835Z,94409.28
2019-04-11T08:05:44.895Z,94415.17
2019-04-11T08:08:34.441Z,94413.02
2019-04-11T08:11:15.989Z,94416.78
2019-04-11T08:13:54.605Z,94409.28
2019-04-11T08:16:55.319Z,94413.30
2019-04-11T08:19:42.859Z,94408.48
2019-04-11T08:22:30.607Z,94411.96
2019-04-11T08:25:13.224Z,94411.69
2019-04-11T08:27:54.872Z,94409.59
2019-04-11T08:30:19.053Z,94409.88
2019-04-11T08:32:51.948Z,94409.12
2019-04-11T08:35:51.987Z,94404.80
2019-04-11T08:38:32.186Z,94401.16
2019-04-11T08:41:23.446Z,94409.08
2019-04-11T08:43:53.242Z,94408.92
2019-04-11T08:46:26.812Z,94408.76
2019-04-11T08:48:59.419Z,94401.59
2019-04-11T08:51:29.428Z,94400.78
2019-04-11T08:54:19.439Z,94389.12
2019-04-11T08:56:49.430Z,94396.06
2019-04-11T08:59:47.062Z,94395.38
2019-04-11T09:02:20.666Z,94397.13
2019-04-11T09:05:19.851Z,94400.02
2019-04-11T09:07:56.150Z,94397.24
2019-04-11T09:10:42.792Z,94399.59
2019-04-11T09:13:31.333Z,94402.31
2019-04-11T09:16:18.426Z,94395.85
2019-04-11T09:18:47.894Z,94392.63
2019-04-11T09:21:34.180Z,94389.58
2019-04-11T09:24:06.209Z,94398.45
2019-04-11T09:27:06.634Z,94402.97
2019-04-11T09:29:39.931Z,94401.72
2019-04-11T09:32:27.102Z,94399.26
2019-04-11T09:35:06.093Z,94399.00
2019-04-11T09:37:37.903Z,94398.67
2019-04-11T09:40:27.940Z,94399.52
2019-04-11T09:43:16.334Z,94394.13
2019-04-11T09:46:08.196Z,94401.23
2019-04-11T09:48:48.494Z,94384.43
2019-04-11T09:51:31.724Z,94392.52
2019-04-11T09:54:05.690Z,94388.78
2019-04-11T09:56:54.065Z,94387.44
2019-04-11T09:59:29.466Z,94392.26
2019-04-11T10:02:08.004Z,94387.97
2019-04-11T10:04:37.571Z,94385.02
2019-04-11T10:07:19.827Z,94381.76
2019-04-11T10:10:14.900Z,94385.52
2019-04-11T10:13:02.673Z,94385.77
2019-04-11T10:15:54.138Z,94384.16
2019-04-11T10:18:42.476Z,94384.37
2019-04-11T10:21:13.016Z,94382.81
2019-04-11T10:24:15.891Z,94368.55
2019-04-11T10:26:48.139Z,94378.16
2019-04-11T10:29:36.492Z,94381.38
2019-04-11T10:32:06.706Z,94378.50
2019-04-11T10:34:54.286Z,94382.23
2019-04-11T10:37:23.720Z,94384.59
2019-04-11T10:40:01.858Z,94387.39
2019-04-11T10:42:32.838Z,94383.57
2019-04-11T10:45:24.871Z,94387.86
2019-04-11T10:47:57.654Z,94391.29
2019-04-11T10:50:52.778Z,94386.78
2019-04-11T10:53:24.937Z,94402.69
2019-04-11T10:56:10.494Z,94414.36
2019-04-11T10:58:44.793Z,94416.51
2019-04-11T11:01:31.740Z,94418.66
2019-04-11T11:04:23.334Z,94426.68
2019-04-11T11:06:55.957Z,94412.75
2019-04-11T11:09:47.364Z,94411.85
2019-04-11T11:12:32.876Z,94411.69
2019-04-11T11:15:11.487Z,94414.47
2019-04-11T11:18:43.924Z,94416.84
2019-04-11T11:20:53.124Z,94418.23
2019-04-11T11:23:37.323Z,94409.59
2019-04-11T11:26:26.567Z,94403.07
2019-04-11T11:29:15.801Z,94405.00
2019-04-11T11:32:07.160Z,94407.34
2019-04-11T11:35:05.325Z,94405.75
2019-04-11T11:37:47.173Z,94410.02
2019-04-11T11:40:38.534Z,94412.91
2019-04-11T11:43:30.930Z,94405.47
2019-04-11T11:46:26.690Z,94408.42
2019-04-11T11:49:02.911Z,94409.17
2019-04-11T11:51:54.024Z,94413.30
2019-04-11T11:54:35.663Z,94412.50
2019-04-11T11:57:15.629Z,94415.42
2019-04-11T11:59:50.929Z,94413.30
2019-04-11T12:02:42.763Z,94419.72
2019-04-11T12:05:27.174Z,94414.89
2019-04-11T12:08:11.587Z,94417.91
2019-04-11T12:10:43.888Z,94418.96
2019-04-11T12:13:41.377Z,94421.64
2019-04-11T12:16:21.359Z,94423.78
2019-04-11T12:19:02.504Z,94416.56
2019-04-11T12:21:34.575Z,94425.98
2019-04-11T12:24:20.924Z,94416.03
2019-04-11T12:27:21.018Z,94417.70
2019-04-11T12:30:07.899Z,94426.79
2019-04-11T12:32:40.976Z,94417.70
2019-04-11T12:35:36.005Z,94403.03
2019-04-11T12:38:11.172Z,94411.38
2019-04-11T12:41:08.198Z,94396.70
2019-04-11T12:43:56.173Z,94393.49
2019-04-11T12:46:43.164Z,94401.58
2019-04-11T12:49:28.753Z,94393.19
2019-04-11T12:52:15.634Z,94397.36
2019-04-11T12:54:45.537Z,94388.73
2019-04-11T12:57:32.292Z,94397.61
2019-04-11T13:00:11.258Z,94388.67
2019-04-11T13:03:11.502Z,94399.33
2019-04-11T13:05:41.498Z,94394.09
2019-04-11T13:08:28.288Z,94395.69
2019-04-11T13:10:57.856Z,94384.67
2019-04-11T13:13:42.844Z,94382.53
2019-04-11T13:16:14.293Z,94387.08
2019-04-11T13:19:02.580Z,94380.97
2019-04-11T13:21:48.272Z,94386.59
2019-04-11T13:24:54.773Z,94386.32
2019-04-11T13:27:34.269Z,94388.19
2019-04-11T13:30:21.095Z,94380.16
2019-04-11T13:32:55.984Z,94371.29
2019-04-11T13:35:42.625Z,94377.76
2019-04-11T13:38:24.024Z,94379.95
2019-04-11T13:41:20.228Z,94376.75
2019-04-11T13:44:14.285Z,94380.00
2019-04-11T13:47:02.576Z,94378.14
2019-04-11T13:49:41.107Z,94379.20
2019-04-11T13:52:29.380Z,94375.77
2019-04-11T13:55:02.708Z,94377.91
2019-04-11T13:57:56.713Z,94371.92
2019-04-11T14:00:44.143Z,94378.23
2019-04-11T14:03:44.594Z,94370.44
2019-04-11T14:06:27.770Z,94375.84
2019-04-11T14:09:24.845Z,94375.84
2019-04-11T14:11:55.652Z,94368.66
2019-04-11T14:14:29.774Z,94377.55
2019-04-11T14:17:04.807Z,94367.69
2019-04-11T14:19:50.728Z,94369.25
2019-04-11T14:22:25.240Z,94377.86
2019-04-11T14:25:03.442Z,94374.42
2019-04-11T14:27:32.882Z,94369.25
2019-04-11T14:30:18.631Z,94371.16
2019-04-11T14:32:48.694Z,94365.05
2019-04-11T14:35:35.397Z,94363.67
2019-04-11T14:38:12.994Z,94365.98
2019-04-11T14:41:01.502Z,94368.16
2019-04-11T14:43:26.767Z,94374.17
2019-04-11T14:46:24.081Z,94370.85
2019-04-11T14:48:59.317Z,94370.75
2019-04-11T14:51:58.444Z,94371.13
2019-04-11T14:54:33.690Z,94370.11
2019-04-11T14:57:07.307Z,94362.84
2019-04-11T14:59:54.191Z,94356.78
2019-04-11T15:02:40.256Z,94342.84
2019-04-11T15:05:16.702Z,94345.34
2019-04-11T15:07:46.781Z,94340.21
2019-04-11T15:10:40.973Z,94342.36
2019-04-11T15:13:12.050Z,94341.06
2019-04-11T15:16:06.593Z,94340.34
2019-04-11T15:18:39.303Z,94337.98
2019-04-11T15:21:42.793Z,94341.69
2019-04-11T15:24:12.814Z,94341.95
2019-04-11T15:26:59.512Z,94333.95
2019-04-11T15:29:31.722Z,94335.55
2019-04-11T15:32:22.121Z,94332.24
2019-04-11T15:35:03.737Z,94331.97
2019-04-11T15:37:54.996Z,94335.94
2019-04-11T15:40:33.352Z,94342.31
2019-04-11T15:43:30.736Z,94337.95
2019-04-11T15:46:17.077Z,94336.34
2019-04-11T15:49:05.815Z,94336.88
2019-04-11T15:51:57.096Z,94339.55
2019-04-11T15:54:45.357Z,94341.70
2019-04-11T15:57:33.649Z,94344.16
2019-04-11T16:00:28.157Z,94346.75
2019-04-11T16:03:14.459Z,94343.80
2019-04-11T16:06:05.867Z,94347.54
2019-04-11T16:08:52.899Z,94347.44
2019-04-11T16:11:53.280Z,94341.02
2019-04-11T16:14:37.222Z,94341.61
2019-04-11T16:17:28.265Z,94343.70
2019-04-11T16:20:03.243Z,94344.19
2019-04-11T16:23:00.280Z,94345.39
2019-04-11T16:25:29.876Z,94341.52
2019-04-11T16:28:16.564Z,94344.02
2019-04-11T16:30:56.774Z,94344.34
2019-04-11T16:33:51.095Z,94342.69
2019-04-11T16:36:37.992Z,94346.83
2019-04-11T16:39:33.456Z,94349.64
2019-04-11T16:42:04.967Z,94345.04
2019-04-11T16:45:02.416Z,94354.89
2019-04-11T16:47:53.749Z,94355.95
2019-04-11T16:50:23.051Z,94358.86
2019-04-11T16:52:52.459Z,94352.91
2019-04-11T16:55:21.901Z,94358.27
2019-04-11T16:57:51.301Z,94360.63
2019-04-11T17:00:21.271Z,94359.30
2019-04-11T17:02:54.713Z,94364.31
2019-04-11T17:05:24.013Z,94368.11
2019-04-11T17:08:20.899Z,94373.95
2019-04-11T17:11:19.034Z,94376.31
2019-04-11T17:13:48.789Z,94374.42
2019-04-11T17:16:19.735Z,94380.59
2019-04-11T17:18:49.161Z,94384.02
2019-04-11T17:21:18.639Z,94387.23
2019-04-11T17:23:48.069Z,94387.35
2019-04-11T17:26:17.508Z,94394.20
2019-04-11T17:28:46.998Z,94396.47
2019-04-11T17:31:16.407Z,94401.07
2019-04-11T17:33:45.847Z,94403.11
2019-04-11T17:36:15.340Z,94407.91
2019-04-11T17:38:45.005Z,94413.93
2019-04-11T17:41:14.454Z,94410.92
2019-04-11T17:43:46.721Z,94417.57
2019-04-11T17:46:15.544Z,94417.09
2019-04-11T17:48:44.944Z,94421.59
2019-04-11T17:51:14.409Z,94425.83
2019-04-11T17:53:43.821Z,94427.22
2019-04-11T17:56:13.290Z,94426.33
2019-04-11T17:58:42.713Z,94430.88
2019-04-11T18:01:12.849Z,94426.59
2019-04-11T18:03:42.710Z,94438.62
2019-04-11T18:06:12.396Z,94444.68
2019-04-11T18:08:41.960Z,94452.44
2019-04-11T18:11:11.355Z,94456.85
2019-04-11T18:13:41.357Z,94462.29
2019-04-11T18:16:10.950Z,94463.23
2019-04-11T18:18:40.372Z,94469.18
2019-04-11T18:21:09.824Z,94477.47
2019-04-11T18:23:39.247Z,94484.66
2019-04-11T18:26:08.669Z,94481.43
2019-04-11T18:28:38.099Z,94488.13
2019-04-11T18:31:07.814Z,94487.01
2019-04-11T18:33:37.493Z,94487.54
2019-04-11T18:36:06.938Z,94490.97
2019-04-11T18:38:36.362Z,94483.19
2019-04-11T18:41:05.780Z,94489.89
2019-04-11T18:43:35.217Z,94490.42
2019-04-11T18:46:05.423Z,94490.80
2019-04-11T18:48:34.851Z,94492.17
2019-04-11T18:51:04.269Z,94490.11
2019-04-11T18:53:33.689Z,94488.61
2019-04-11T18:56:03.215Z,94489.46
2019-04-11T18:58:34.465Z,94491.50
2019-04-11T19:01:08.823Z,94492.26
2019-04-11T19:03:36.643Z,94486.29
2019-04-11T19:06:06.255Z,94487.24
2019-04-11T19:08:35.782Z,94488.33
2019-04-11T19:11:05.296Z,94492.67
2019-04-11T19:13:34.722Z,94492.84
2019-04-11T19:16:04.251Z,94495.80
2019-04-11T19:18:33.675Z,94496.86
2019-04-11T19:21:03.154Z,94503.55
2019-04-11T19:23:32.570Z,94503.80
2019-04-11T19:26:01.999Z,94503.80
2019-04-11T19:28:31.416Z,94504.84
2019-04-11T19:31:00.850Z,94503.50
2019-04-11T19:33:34.091Z,94503.64
2019-04-11T19:36:01.456Z,94504.56
2019-04-11T19:38:33.140Z,94507.77
2019-04-11T19:41:02.605Z,94512.59
2019-04-11T19:43:32.079Z,94516.61
2019-04-11T19:46:01.626Z,94511.25
2019-04-11T19:48:31.065Z,94510.02
2019-04-11T19:51:00.508Z,94516.80
2019-04-11T19:53:32.827Z,94512.98
2019-04-11T19:56:10.265Z,94510.02
2019-04-11T19:58:39.703Z,94508.10
2019-04-11T20:01:09.140Z,94509.72
2019-04-11T20:03:38.571Z,94509.86
2019-04-11T20:06:08.125Z,94515.71
2019-04-11T20:08:37.569Z,94514.70
2019-04-11T20:11:07.026Z,94517.91
2019-04-11T20:13:36.477Z,94522.16
2019-04-11T20:16:05.965Z,94516.47
2019-04-11T20:18:35.414Z,94511.44
2019-04-11T20:21:07.290Z,94519.67
2019-04-11T20:23:36.027Z,94518.00
2019-04-11T20:26:05.525Z,94519.40
2019-04-11T20:28:34.974Z,94511.05
2019-04-11T20:31:04.428Z,94519.34
2019-04-11T20:33:34.802Z,94519.03
2019-04-11T20:36:08.184Z,94526.51
2019-04-11T20:38:38.077Z,94531.33
2019-04-11T20:41:07.488Z,94525.70
2019-04-11T20:43:37.019Z,94521.91
2019-04-11T20:46:06.551Z,94524.58
2019-04-11T20:48:36.007Z,94533.14
2019-04-11T20:51:05.453Z,94528.80
2019-04-11T20:53:37.453Z,94538.16
2019-04-11T20:56:09.499Z,94538.11
2019-04-11T20:58:39.740Z,94535.13
2019-04-11T21:01:08.490Z,94541.53
2019-04-11T21:03:37.948Z,94533.50
2019-04-11T21:06:07.398Z,94536.98
2019-04-11T21:08:36.887Z,94536.98
2019-04-11T21:11:06.291Z,94533.45
2019-04-11T21:13:38.143Z,94525.63
2019-04-11T21:16:06.887Z,94526.81
2019-04-11T21:18:36.352Z,94529.71
2019-04-11T21:21:05.764Z,94538.52
2019-04-11T21:23:35.202Z,94538.27
2019-04-11T21:26:04.625Z,94548.11
2019-04-11T21:28:34.073Z,94542.76
2019-04-11T21:31:03.489Z,94536.59
2019-04-11T21:33:34.980Z,94530.96
2019-04-11T21:36:04.171Z,94530.13
2019-04-11T21:38:33.595Z,94528.50
2019-04-11T21:41:05.859Z,94541.61
2019-04-11T21:43:36.306Z,94542.11
2019-04-11T21:46:06.863Z,94544.29
2019-04-11T21:48:36.632Z,94541.61
2019-04-11T21:51:06.139Z,94543.70
2019-04-11T21:53:36.654Z,94542.36
2019-04-11T21:56:06.471Z,94537.59
2019-04-11T21:58:35.920Z,94528.73
2019-04-11T22:01:09.210Z,94529.56
2019-04-11T22:03:38.671Z,94527.36
2019-04-11T22:06:08.097Z,94529.56
2019-04-11T22:08:37.858Z,94526.30
2019-04-11T22:11:09.866Z,94528.98
2019-04-11T22:13:40.406Z,94530.04
2019-04-11T22:16:13.214Z,94527.36
2019-04-11T22:18:40.817Z,94528.70
2019-04-11T22:21:10.256Z,94527.11
2019-04-11T22:23:48.606Z,94530.78
2019-04-11T22:26:10.884Z,94523.34
2019-04-11T22:28:40.330Z,94525.19
2019-04-11T22:31:09.810Z,94523.34
2019-04-11T22:34:01.090Z,94523.56
2019-04-11T22:36:30.849Z,94516.06
2019-04-11T22:39:01.036Z,94518.16
2019-04-11T22:41:31.024Z,94520.83
2019-04-11T22:44:00.449Z,94520.02
2019-04-11T22:46:29.893Z,94520.83
2019-04-11T22:48:59.327Z,94520.83
2019-04-11T22:51:28.820Z,94511.72
2019-04-11T22:54:00.609Z,94517.06
2019-04-11T22:56:29.424Z,94509.53
2019-04-11T22:58:58.865Z,94510.66
2019-04-11T23:01:28.404Z,94514.39
2019-04-11T23:03:59.269Z,94516.01
2019-04-11T23:06:28.750Z,94512.80
2019-04-11T23:08:58.215Z,94514.89
2019-04-11T23:11:27.648Z,94520.02
2019-04-11T23:13:57.074Z,94514.95
2019-04-11T23:16:26.527Z,94507.70
2019-04-11T23:18:55.975Z,94499.61
2019-04-11T23:21:25.417Z,94501.98
2019-04-11T23:23:54.917Z,94501.70
2019-04-11T23:26:24.352Z,94501.70
2019-04-11T23:28:53.800Z,94508.67
2019-04-11T23:31:23.227Z,94509.67
2019-04-11T23:33:52.740Z,94513.05
2019-04-11T23:36:22.178Z,94507.70
2019-04-11T23:38:52.669Z,94506.30
2019-04-11T23:41:22.940Z,94502.29
2019-04-11T23:43:52.372Z,94508.98
2019-04-11T23:46:22.116Z,94510.01
2019-04-11T23:48:54.545Z,94513.22
2019-04-11T23:51:25.395Z,94511.81
2019-04-11T23:53:53.950Z,94510.48
2019-04-11T23:56:23.378Z,94504.84
2019-04-11T23:58:52.820Z,94505.37
